Time;durP1;ratioP1;P1;durP2;ratioP2;P2;SDS_P1;SDS_P2;PMS_P1;PMS_P2;Temp;Humidity;BMP_temperature;BMP_pressure;BME280_temperature;BME280_humidity;BME280_pressure;Samples;Min_cycle;Max_cycle;Signal;HPM_P1;HPM_P2
2022/10/02 00:00:20;;;;;;;;;;;17.40;99.90;;;;;;4978782;28;20091;-79
2022/10/02 00:09:30;;;;;;;;;;;17.40;99.90;;;;;;4930793;29;19947;-80
2022/10/02 00:43:28;;;;;;;;;;;17.00;99.90;;;;;;4939141;29;19914;-78
2022/10/02 00:49:29;;;;;;;;;;;17.10;99.90;;;;;;4957696;28;19941;-78
2022/10/02 01:05:21;;;;;;;;;;;;;;;;;;;;;
2022/10/02 01:11:35;;;;;;;;;;;;;;;;;;;;;
2022/10/02 01:14:15;;;;;;;;;;;17.30;99.90;;;;;;5030590;28;20536;-79
2022/10/02 01:20:04;;;;;;;;;;;17.30;99.90;;;;;;5092644;28;19919;-79
2022/10/02 01:26:00;;;;;;;;;;;17.30;99.90;;;;;;5104955;28;19903;-78
2022/10/02 01:35:11;;;;;;;;;;;;;;;;;;;;;
2022/10/02 01:38:13;;;;;;;;;;;17.10;99.90;;;;;;4955282;28;20007;-79
2022/10/02 01:40:58;;;;;;;;;;;17.10;99.90;;;;;;5000890;28;19914;-79
2022/10/02 01:46:55;;;;;;;;;;;17.30;99.90;;;;;;5046339;28;19941;-78
2022/10/02 02:01:55;;;;;;;;;;;17.10;99.90;;;;;;5037747;28;19932;-78
2022/10/02 02:04:49;;;;;;;;;;;17.00;99.90;;;;;;5073070;28;20018;-79
2022/10/02 02:20:14;;;;;;;;;;;16.90;99.90;;;;;;5090730;28;19920;-79
2022/10/02 02:25:56;;;;;;;;;;;;;;;;;;;;;
2022/10/02 02:34:53;;;;;;;;;;;16.70;99.90;;;;;;5091634;28;19926;-78
2022/10/02 02:47:05;;;;;;;;;;;16.60;99.90;;;;;;5012628;28;19948;-78
2022/10/02 02:49:56;;;;;;;;;;;16.60;99.90;;;;;;5012772;28;19913;-78
2022/10/02 02:59:20;;;;;;;;;;;;;;;;;;;;;
2022/10/02 03:05:03;;;;;;;;;;;16.80;99.90;;;;;;5032386;28;19919;-79
2022/10/02 03:11:04;;;;;;;;;;;16.70;99.90;;;;;;5027103;28;19933;-78
2022/10/02 03:28:43;;;;;;;;;;;16.60;99.90;;;;;;4998594;28;19990;-79
2022/10/02 03:31:13;;;;;;;;;;;16.70;99.90;;;;;;5037809;28;19921;-79
2022/10/02 03:34:28;;;;;;;;;;;;;;;;;;;;;
2022/10/02 03:37:01;;;;;;;;;;;16.70;99.90;;;;;;5085060;28;20034;-79
2022/10/02 03:39:51;;;;;;;;;;;16.50;99.90;;;;;;5101359;28;19959;-79
2022/10/02 03:42:58;;;;;;;;;;;;;;;;;;;;;
2022/10/02 03:48:44;;;;;;;;;;;16.40;99.90;;;;;;5081586;28;19915;-80
2022/10/02 03:58:06;;;;;;;;;;;;;;;;;;;;;
2022/10/02 04:04:01;;;;;;;;;;;16.40;99.90;;;;;;5013750;28;19970;-78
2022/10/02 04:16:50;;;;;;;;;;;16.30;99.90;;;;;;5005797;28;19943;-79
2022/10/02 04:19:12;;;;;;;;;;;16.20;99.90;;;;;;5031391;28;19996;-78
2022/10/02 04:21:56;;;;;;;;;;;16.30;99.90;;;;;;5091119;28;19915;-79
2022/10/02 04:25:01;;;;;;;;;;;16.30;99.90;;;;;;5036964;28;19921;-78
2022/10/02 04:27:42;;;;;;;;;;;16.30;99.90;;;;;;5039354;28;20422;-78
2022/10/02 04:30:08;;;;;;;;;;;16.20;99.90;;;;;;5071163;28;19947;-79
2022/10/02 04:32:56;;;;;;;;;;;16.20;99.90;;;;;;5097942;28;19916;-79
2022/10/02 04:39:37;;;;;;;;;;;;;;;;;;;;;
2022/10/02 04:42:14;;;;;;;;;;;;;;;;;;;;;
2022/10/02 04:45:12;;;;;;;;;;;16.00;99.90;;;;;;5065844;28;19909;-79
2022/10/02 05:06:56;;;;;;;;;;;;;;;;;;;;;
2022/10/02 05:10:02;;;;;;;;;;;16.10;99.90;;;;;;4950431;28;19920;-79
2022/10/02 05:16:28;;;;;;;;;;;16.20;99.90;;;;;;4932215;29;19915;-79
2022/10/02 05:19:19;;;;;;;;;;;16.20;99.90;;;;;;4912787;29;19925;-79
2022/10/02 05:28:20;;;;;;;;;;;16.30;99.90;;;;;;4990291;28;19973;-79
2022/10/02 05:37:10;;;;;;;;;;;16.30;99.90;;;;;;5001300;28;20447;-79
2022/10/02 05:40:21;;;;;;;;;;;;;;;;;;;;;
2022/10/02 05:43:11;;;;;;;;;;;16.20;99.90;;;;;;5009453;28;19935;-79
2022/10/02 05:46:04;;;;;;;;;;;16.30;99.90;;;;;;5013889;28;20170;-78
2022/10/02 05:49:15;;;;;;;;;;;;;;;;;;;;;
2022/10/02 05:55:06;;;;;;;;;;;16.40;99.90;;;;;;4953185;29;19946;-79
2022/10/02 06:00:58;;;;;;;;;;;16.60;99.90;;;;;;5058557;28;20320;-78
2022/10/02 06:03:32;;;;;;;;;;;16.70;99.90;;;;;;5085361;28;19964;-79
2022/10/02 06:06:13;;;;;;;;;;;16.60;99.90;;;;;;5067702;28;19919;-79
2022/10/02 06:08:50;;;;;;;;;;;;;;;;;;;;;
2022/10/02 06:11:31;;;;;;;;;;;16.70;99.90;;;;;;5072285;28;21851;-79
2022/10/02 06:14:05;;;;;;;;;;;16.80;99.90;;;;;;5076773;28;19912;-81
2022/10/02 06:16:50;;;;;;;;;;;16.90;99.90;;;;;;5073607;28;19971;-79
2022/10/02 06:19:43;;;;;;;;;;;17.00;99.90;;;;;;5072620;28;19912;-79
2022/10/02 06:22:20;;;;;;;;;;;17.10;99.90;;;;;;5068136;28;19939;-79
2022/10/02 06:25:18;;;;;;;;;;;17.10;99.90;;;;;;5065753;28;19919;-79
2022/10/02 06:28:02;;;;;;;;;;;17.20;99.90;;;;;;5064345;28;19912;-79
2022/10/02 06:30:31;;;;;;;;;;;17.20;99.90;;;;;;5066268;28;20366;-79
2022/10/02 06:33:08;;;;;;;;;;;17.20;99.90;;;;;;5076271;28;19923;-79
2022/10/02 06:35:34;;;;;;;;;;;17.30;99.90;;;;;;5076682;28;19995;-79
2022/10/02 06:38:10;;;;;;;;;;;17.40;99.90;;;;;;5070979;28;19912;-79
2022/10/02 06:40:41;;;;;;;;;;;17.40;99.90;;;;;;5073662;28;19912;-79
2022/10/02 06:43:17;;;;;;;;;;;17.50;99.90;;;;;;5101399;28;19916;-79
2022/10/02 06:45:59;;;;;;;;;;;17.50;99.90;;;;;;5079917;28;19908;-79
2022/10/02 06:48:25;;;;;;;;;;;17.60;99.90;;;;;;5096917;28;19983;-79
2022/10/02 06:51:09;;;;;;;;;;;17.70;99.90;;;;;;5093331;28;20330;-79
2022/10/02 06:53:35;;;;;;;;;;;17.80;99.90;;;;;;5093449;28;20366;-78
2022/10/02 06:56:10;;;;;;;;;;;17.90;99.90;;;;;;5077438;28;19969;-79
2022/10/02 06:58:46;;;;;;;;;;;18.00;99.90;;;;;;5097481;28;19958;-80
2022/10/02 07:01:30;;;;;;;;;;;18.00;99.90;;;;;;5095501;28;19942;-79
2022/10/02 07:04:06;;;;;;;;;;;18.10;99.90;;;;;;5095124;28;19966;-79
2022/10/02 07:07:10;;;;;;;;;;;18.20;99.90;;;;;;5077758;28;19951;-79
2022/10/02 07:09:54;;;;;;;;;;;18.40;99.90;;;;;;5073416;28;19932;-72
2022/10/02 07:12:32;;;;;;;;;;;18.40;99.90;;;;;;5086359;28;19923;-72
2022/10/02 07:15:15;;;;;;;;;;;18.40;99.90;;;;;;5084710;28;20026;-72
2022/10/02 07:17:47;;;;;;;;;;;18.50;99.90;;;;;;5085124;28;20046;-72
2022/10/02 07:20:12;;;;;;;;;;;18.70;99.90;;;;;;5083822;28;19920;-72
2022/10/02 07:22:41;;;;;;;;;;;18.80;99.90;;;;;;5081850;28;19919;-73
2022/10/02 07:25:19;;;;;;;;;;;18.80;99.90;;;;;;5067403;28;20042;-72
2022/10/02 07:27:50;;;;;;;;;;;18.90;99.90;;;;;;5085030;28;19912;-72
2022/10/02 07:30:16;;;;;;;;;;;18.90;99.90;;;;;;5085727;28;19996;-75
2022/10/02 07:32:47;;;;;;;;;;;18.90;99.90;;;;;;5084431;28;20370;-76
2022/10/02 07:35:32;;;;;;;;;;;19.10;99.90;;;;;;5085170;28;20420;-73
2022/10/02 07:38:12;;;;;;;;;;;19.20;99.90;;;;;;5066077;28;19919;-72
2022/10/02 07:40:47;;;;;;;;;;;19.50;99.90;;;;;;5084160;28;19947;-72
2022/10/02 07:43:31;;;;;;;;;;;19.60;99.90;;;;;;5085167;28;19916;-72
2022/10/02 07:46:03;;;;;;;;;;;19.80;99.90;;;;;;5084195;28;19916;-72
2022/10/02 07:48:49;;;;;;;;;;;19.90;99.90;;;;;;5086409;28;19912;-72
2022/10/02 07:54:27;;;;;;;;;;;19.80;99.90;;;;;;5081241;28;19938;-72
2022/10/02 07:56:56;;;;;;;;;;;19.80;99.90;;;;;;5083639;28;19948;-71
2022/10/02 07:59:22;;;;;;;;;;;19.80;99.90;;;;;;5084416;28;19913;-76
2022/10/02 08:01:49;;;;;;;;;;;19.80;99.90;;;;;;5083843;28;19908;-71
2022/10/02 08:04:24;;;;;;;;;;;19.70;99.90;;;;;;5085019;28;19935;-71
2022/10/02 08:06:52;;;;;;;;;;;19.70;99.90;;;;;;5067849;28;19980;-71
2022/10/02 08:09:21;;;;;;;;;;;19.90;99.90;;;;;;5086146;28;19927;-71
2022/10/02 08:11:50;;;;;;;;;;;20.00;99.90;;;;;;5087611;28;19920;-71
2022/10/02 08:14:44;;;;;;;;;;;20.00;99.90;;;;;;5084506;28;19923;-72
2022/10/02 08:17:16;;;;;;;;;;;20.10;99.90;;;;;;5081659;28;19943;-72
2022/10/02 08:19:46;;;;;;;;;;;20.10;99.90;;;;;;5084945;28;19920;-71
2022/10/02 08:22:32;;;;;;;;;;;20.20;99.90;;;;;;5085094;28;19919;-72
2022/10/02 08:25:12;;;;;;;;;;;20.30;99.90;;;;;;5079571;28;19916;-72
2022/10/02 08:27:41;;;;;;;;;;;20.30;99.90;;;;;;5084046;28;19920;-72
2022/10/02 08:30:07;;;;;;;;;;;20.50;99.90;;;;;;5083982;28;19916;-71
2022/10/02 08:32:35;;;;;;;;;;;20.70;99.90;;;;;;5084580;28;20012;-72
2022/10/02 08:35:04;;;;;;;;;;;21.10;99.90;;;;;;5083888;28;19923;-72
2022/10/02 08:37:32;;;;;;;;;;;21.30;99.90;;;;;;5085284;28;20452;-72
2022/10/02 08:40:16;;;;;;;;;;;21.50;99.90;;;;;;5083003;28;20373;-71
2022/10/02 08:42:44;;;;;;;;;;;21.70;99.90;;;;;;5083253;28;19916;-72
2022/10/02 08:45:10;;;;;;;;;;;22.00;99.90;;;;;;5082644;28;19920;-72
2022/10/02 08:48:04;;;;;;;;;;;22.20;99.90;;;;;;5086976;28;20044;-71
2022/10/02 08:50:32;;;;;;;;;;;22.20;99.90;;;;;;5085441;28;20347;-72
2022/10/02 08:53:17;;;;;;;;;;;22.40;99.90;;;;;;5100746;28;19916;-72
2022/10/02 08:56:02;;;;;;;;;;;22.60;99.90;;;;;;5096698;28;19974;-71
2022/10/02 08:58:37;;;;;;;;;;;22.80;99.90;;;;;;5090865;28;19916;-71
2022/10/02 09:01:06;;;;;;;;;;;22.90;99.90;;;;;;5091383;28;20457;-71
2022/10/02 09:03:44;;;;;;;;;;;22.90;99.90;;;;;;5087565;28;19916;-72
2022/10/02 09:06:19;;;;;;;;;;;23.00;99.90;;;;;;5092715;28;19979;-72
2022/10/02 09:08:47;;;;;;;;;;;23.10;99.90;;;;;;5092289;28;20385;-72
2022/10/02 09:11:36;;;;;;;;;;;23.00;99.90;;;;;;5093872;28;19951;-73
2022/10/02 09:14:19;;;;;;;;;;;23.10;99.90;;;;;;5092326;28;20212;-72
2022/10/02 09:16:45;;;;;;;;;;;22.90;99.90;;;;;;5081600;28;19996;-72
2022/10/02 09:19:20;;;;;;;;;;;22.80;99.90;;;;;;5095237;28;19954;-72
2022/10/02 09:21:59;;;;;;;;;;;22.60;99.90;;;;;;5095067;28;19912;-72
2022/10/02 09:24:42;;;;;;;;;;;22.50;99.90;;;;;;5088754;28;19912;-73
2022/10/02 09:27:22;;;;;;;;;;;22.40;99.90;;;;;;5093842;28;19912;-73
2022/10/02 09:29:49;;;;;;;;;;;22.30;99.90;;;;;;5094532;28;19915;-73
2022/10/02 09:32:53;;;;;;;;;;;22.20;99.90;;;;;;5096619;28;19938;-73
2022/10/02 09:35:18;;;;;;;;;;;22.10;99.90;;;;;;5025532;28;19917;-74
2022/10/02 09:38:04;;;;;;;;;;;22.20;99.90;;;;;;5022155;28;20517;-74
2022/10/02 09:40:36;;;;;;;;;;;22.30;99.90;;;;;;5062890;28;19947;-73
2022/10/02 09:43:17;;;;;;;;;;;22.50;99.90;;;;;;5094782;28;19923;-74
2022/10/02 09:45:49;;;;;;;;;;;22.80;99.90;;;;;;5104700;28;19909;-73
2022/10/02 09:48:33;;;;;;;;;;;23.30;99.90;;;;;;5097427;28;19939;-73
2022/10/02 09:50:59;;;;;;;;;;;23.50;99.90;;;;;;5085320;28;20309;-73
2022/10/02 09:53:28;;;;;;;;;;;23.80;99.90;;;;;;5087956;28;19961;-77
2022/10/02 09:55:56;;;;;;;;;;;23.70;99.90;;;;;;5083632;28;20332;-73
2022/10/02 09:58:37;;;;;;;;;;;23.60;99.90;;;;;;5102220;28;20346;-78
2022/10/02 10:01:18;;;;;;;;;;;23.60;99.90;;;;;;5099857;28;19918;-74
2022/10/02 10:03:44;;;;;;;;;;;23.70;99.90;;;;;;5096505;28;20373;-73
2022/10/02 10:06:18;;;;;;;;;;;23.60;99.90;;;;;;5085995;28;19919;-73
2022/10/02 10:08:53;;;;;;;;;;;23.60;99.90;;;;;;5094506;28;19909;-73
2022/10/02 10:11:48;;;;;;;;;;;23.60;99.90;;;;;;5077826;28;20396;-73
2022/10/02 10:14:29;;;;;;;;;;;23.70;99.90;;;;;;5091975;28;19938;-73
2022/10/02 10:17:07;;;;;;;;;;;23.80;99.90;;;;;;5094603;28;20397;-73
2022/10/02 10:19:36;;;;;;;;;;;24.00;99.90;;;;;;5089814;28;19912;-73
2022/10/02 10:22:02;;;;;;;;;;;24.10;99.90;;;;;;5097563;28;19991;-73
2022/10/02 10:24:46;;;;;;;;;;;24.40;99.90;;;;;;5102418;28;19958;-74
2022/10/02 10:27:15;;;;;;;;;;;24.40;99.90;;;;;;5101011;28;20011;-74
2022/10/02 10:29:53;;;;;;;;;;;24.40;99.90;;;;;;5100284;28;19934;-73
2022/10/02 10:32:21;;;;;;;;;;;24.10;99.90;;;;;;5104410;28;19946;-72
2022/10/02 10:34:50;;;;;;;;;;;24.00;99.90;;;;;;5106759;28;19912;-72
2022/10/02 10:40:00;;;;;;;;;;;24.00;99.90;;;;;;5097232;28;19914;-73
2022/10/02 10:42:26;;;;;;;;;;;23.90;99.90;;;;;;5085718;28;20284;-74
2022/10/02 10:45:33;;;;;;;;;;;24.00;99.90;;;;;;5099446;28;20412;-72
2022/10/02 10:48:13;;;;;;;;;;;24.00;99.90;;;;;;5014979;28;19917;-73
2022/10/02 10:50:44;;;;;;;;;;;23.60;99.90;;;;;;5031062;28;19919;-73
2022/10/02 10:53:29;;;;;;;;;;;23.60;99.90;;;;;;5062965;28;19923;-73
2022/10/02 10:56:18;;;;;;;;;;;23.50;99.90;;;;;;5082997;28;19916;-73
2022/10/02 10:59:05;;;;;;;;;;;23.50;99.90;;;;;;5091918;28;20384;-73
2022/10/02 11:01:37;;;;;;;;;;;23.40;99.90;;;;;;5094935;28;19930;-75
2022/10/02 11:04:15;;;;;;;;;;;23.30;99.90;;;;;;5095137;28;19979;-75
2022/10/02 11:06:49;;;;;;;;;;;23.30;99.90;;;;;;5092913;28;20042;-72
2022/10/02 11:09:25;;;;;;;;;;;23.40;99.90;;;;;;5082439;28;19916;-73
2022/10/02 11:11:51;;;;;;;;;;;23.40;99.90;;;;;;5105715;28;19916;-73
2022/10/02 11:14:55;;;;;;;;;;;;;;;;;;;;;
2022/10/02 11:17:47;;;;;;;;;;;23.50;99.90;;;;;;5080113;28;19919;-73
2022/10/02 11:23:15;;;;;;;;;;;23.00;99.90;;;;;;5108585;28;20009;-73
2022/10/02 11:26:48;;;;;;;;;;;23.00;99.90;;;;;;5100732;28;19915;-73
2022/10/02 11:29:39;;;;;;;;;;;23.10;99.90;;;;;;5091881;28;19912;-73
2022/10/02 11:35:47;;;;;;;;;;;23.80;99.90;;;;;;5039421;28;20059;-73
2022/10/02 11:38:41;;;;;;;;;;;23.90;99.90;;;;;;5093661;28;19908;-72
2022/10/02 11:41:28;;;;;;;;;;;23.50;99.90;;;;;;5095391;28;19916;-73
2022/10/02 11:44:09;;;;;;;;;;;23.40;99.90;;;;;;5083937;28;19955;-72
2022/10/02 11:47:02;;;;;;;;;;;23.10;99.90;;;;;;5089176;28;19930;-73
2022/10/02 11:49:52;;;;;;;;;;;23.20;99.90;;;;;;5085144;28;19935;-74
2022/10/02 11:52:32;;;;;;;;;;;23.30;99.90;;;;;;5092518;28;19916;-73
2022/10/02 11:55:23;;;;;;;;;;;23.30;99.90;;;;;;5106924;28;20049;-73
2022/10/02 11:57:59;;;;;;;;;;;23.50;99.90;;;;;;5096041;28;19912;-73
2022/10/02 12:00:43;;;;;;;;;;;23.70;99.90;;;;;;5105805;28;19912;-72
2022/10/02 12:03:28;;;;;;;;;;;23.60;99.90;;;;;;5094440;28;19948;-71
2022/10/02 12:06:17;;;;;;;;;;;23.50;99.90;;;;;;5071651;28;19968;-72
2022/10/02 12:09:06;;;;;;;;;;;23.60;99.90;;;;;;5080702;28;20446;-70
2022/10/02 12:11:36;;;;;;;;;;;23.60;99.90;;;;;;5085823;28;19916;-72
2022/10/02 12:14:26;;;;;;;;;;;23.60;99.90;;;;;;5103252;28;20377;-71
2022/10/02 12:17:04;;;;;;;;;;;23.70;99.90;;;;;;5091898;28;19931;-73
2022/10/02 12:19:30;;;;;;;;;;;23.80;99.90;;;;;;5099445;28;19912;-71
2022/10/02 12:27:49;;;;;;;;;;;23.60;99.90;;;;;;5090476;28;19922;-70
2022/10/02 12:30:22;;;;;;;;;;;23.30;99.90;;;;;;5101972;28;19912;-71
2022/10/02 12:32:54;;;;;;;;;;;23.10;99.90;;;;;;5092284;28;19939;-71
2022/10/02 12:35:23;;;;;;;;;;;22.90;99.90;;;;;;5072330;28;19912;-71
2022/10/02 12:37:49;;;;;;;;;;;23.10;99.90;;;;;;5097850;28;19966;-71
2022/10/02 12:40:34;;;;;;;;;;;23.10;99.90;;;;;;5093262;28;19912;-72
2022/10/02 12:43:00;;;;;;;;;;;23.10;99.90;;;;;;5094092;28;19939;-71
2022/10/02 12:45:30;;;;;;;;;;;23.20;99.90;;;;;;5074498;28;20304;-71
2022/10/02 12:48:09;;;;;;;;;;;23.10;99.90;;;;;;5088506;28;19931;-71
2022/10/02 12:50:54;;;;;;;;;;;22.80;99.90;;;;;;5100605;28;19949;-71
2022/10/02 12:53:48;;;;;;;;;;;22.60;99.90;;;;;;5094619;28;19920;-71
2022/10/02 13:03:12;;;;;;;;;;;22.20;99.90;;;;;;5013572;28;20447;-71
2022/10/02 13:15:32;;;;;;;;;;;21.40;99.90;;;;;;4954273;28;19918;-71
2022/10/02 13:24:16;;;;;;;;;;;21.60;99.90;;;;;;4954535;29;20333;-71
2022/10/02 13:33:16;;;;;;;;;;;21.80;99.90;;;;;;4973794;28;19940;-71
2022/10/02 13:54:36;;;;;;;;;;;22.30;99.90;;;;;;4973580;28;19976;-71
2022/10/02 13:57:20;;;;;;;;;;;22.20;99.90;;;;;;5094520;28;19999;-72
2022/10/02 14:00:16;;;;;;;;;;;22.40;99.90;;;;;;5099406;28;19931;-71
2022/10/02 14:02:47;;;;;;;;;;;22.40;99.90;;;;;;5054199;28;20397;-71
2022/10/02 14:05:19;;;;;;;;;;;22.60;99.90;;;;;;5091177;28;19935;-71
2022/10/02 14:07:48;;;;;;;;;;;22.50;99.90;;;;;;5089959;28;19943;-71
2022/10/02 14:10:17;;;;;;;;;;;22.60;99.90;;;;;;5095560;28;19912;-71
2022/10/02 14:12:46;;;;;;;;;;;22.70;99.90;;;;;;5109299;28;20304;-71
2022/10/02 14:15:30;;;;;;;;;;;22.90;99.90;;;;;;5089963;28;20006;-72
2022/10/02 14:18:20;;;;;;;;;;;23.00;99.90;;;;;;5102218;28;20013;-72
2022/10/02 14:20:56;;;;;;;;;;;23.20;99.90;;;;;;5088597;28;20328;-72
2022/10/02 14:23:40;;;;;;;;;;;23.20;99.90;;;;;;5085588;28;19921;-73
2022/10/02 14:26:24;;;;;;;;;;;23.20;99.90;;;;;;5093765;28;19919;-71
2022/10/02 14:29:01;;;;;;;;;;;23.10;99.90;;;;;;5093412;28;20285;-72
2022/10/02 14:31:45;;;;;;;;;;;23.20;99.90;;;;;;5073623;28;19920;-72
2022/10/02 14:34:12;;;;;;;;;;;23.30;99.90;;;;;;5101052;28;19916;-73
2022/10/02 14:36:56;;;;;;;;;;;23.40;99.90;;;;;;5088435;28;19912;-71
2022/10/02 14:40:14;;;;;;;;;;;23.30;99.90;;;;;;5071023;28;20279;-72
2022/10/02 14:43:34;;;;;;;;;;;23.40;99.90;;;;;;5082457;28;19969;-71
2022/10/02 14:45:40;;;;;;;;;;;23.20;99.90;;;;;;5097636;28;19953;-71
2022/10/02 14:48:28;;;;;;;;;;;22.90;99.90;;;;;;5095718;28;19912;-71
2022/10/02 14:51:13;;;;;;;;;;;22.60;99.90;;;;;;5089936;28;19981;-71
2022/10/02 14:53:57;;;;;;;;;;;22.30;99.90;;;;;;5091624;28;19916;-71
2022/10/02 14:56:41;;;;;;;;;;;22.20;99.90;;;;;;5094063;28;20357;-71
2022/10/02 14:59:09;;;;;;;;;;;21.90;99.90;;;;;;5094706;28;19913;-73
2022/10/02 15:01:58;;;;;;;;;;;21.80;99.90;;;;;;5076429;28;19912;-71
2022/10/02 15:04:30;;;;;;;;;;;21.70;99.90;;;;;;5080691;28;20019;-70
2022/10/02 15:07:08;;;;;;;;;;;21.80;99.90;;;;;;5074815;28;20003;-71
2022/10/02 15:09:44;;;;;;;;;;;21.60;99.90;;;;;;5096655;28;19962;-72
2022/10/02 15:12:42;;;;;;;;;;;21.60;99.90;;;;;;5097825;28;19912;-70
2022/10/02 15:15:17;;;;;;;;;;;21.60;99.90;;;;;;5097288;28;19940;-71
2022/10/02 15:17:59;;;;;;;;;;;21.40;99.90;;;;;;5094476;28;19919;-71
2022/10/02 15:20:43;;;;;;;;;;;21.40;99.90;;;;;;5095769;28;19912;-70
2022/10/02 15:23:11;;;;;;;;;;;21.40;99.90;;;;;;5100864;28;19947;-71
2022/10/02 15:26:12;;;;;;;;;;;21.50;99.90;;;;;;5095508;28;19932;-70
2022/10/02 15:28:37;;;;;;;;;;;21.40;99.90;;;;;;5074411;28;19981;-71
2022/10/02 15:31:15;;;;;;;;;;;21.20;99.90;;;;;;5097042;28;20294;-71
2022/10/02 15:33:47;;;;;;;;;;;21.10;99.90;;;;;;5097335;28;20015;-71
2022/10/02 15:36:22;;;;;;;;;;;21.20;99.90;;;;;;5097993;28;19912;-71
2022/10/02 15:39:15;;;;;;;;;;;21.20;99.90;;;;;;5095237;28;19954;-71
2022/10/02 15:41:59;;;;;;;;;;;21.20;99.90;;;;;;5100194;28;19908;-74
2022/10/02 15:44:25;;;;;;;;;;;21.20;99.90;;;;;;5110179;28;19916;-71
2022/10/02 15:46:56;;;;;;;;;;;21.20;99.90;;;;;;5104336;28;19990;-70
2022/10/02 15:49:43;;;;;;;;;;;21.10;99.90;;;;;;5114066;28;19908;-71
2022/10/02 15:52:09;;;;;;;;;;;21.00;99.90;;;;;;5095585;28;19912;-70
2022/10/02 15:54:34;;;;;;;;;;;21.00;99.90;;;;;;5097733;28;19923;-71
2022/10/02 15:57:10;;;;;;;;;;;20.90;99.90;;;;;;5104074;28;20056;-70
2022/10/02 15:59:45;;;;;;;;;;;20.90;99.90;;;;;;5085651;28;20009;-71
2022/10/02 16:02:22;;;;;;;;;;;20.90;99.90;;;;;;5088815;28;19912;-70
2022/10/02 16:04:51;;;;;;;;;;;20.80;99.90;;;;;;5082169;28;19913;-70
2022/10/02 16:07:17;;;;;;;;;;;20.80;99.90;;;;;;5092407;28;19916;-70
2022/10/02 16:09:59;;;;;;;;;;;20.60;99.90;;;;;;5091761;28;19974;-70
2022/10/02 16:12:43;;;;;;;;;;;20.50;99.90;;;;;;5085333;28;19963;-71
2022/10/02 16:15:28;;;;;;;;;;;20.50;99.90;;;;;;5090631;28;20266;-71
2022/10/02 16:18:12;;;;;;;;;;;20.60;99.90;;;;;;5094451;28;19958;-70
2022/10/02 16:20:50;;;;;;;;;;;20.60;99.90;;;;;;5073515;28;19912;-70
2022/10/02 16:23:35;;;;;;;;;;;20.40;99.90;;;;;;5093639;28;19919;-70
2022/10/02 16:26:00;;;;;;;;;;;20.30;99.90;;;;;;5094086;28;19912;-70
2022/10/02 16:28:43;;;;;;;;;;;20.10;99.90;;;;;;5075468;28;20055;-71
2022/10/02 16:31:16;;;;;;;;;;;20.10;99.90;;;;;;5075641;28;19932;-70
2022/10/02 16:33:49;;;;;;;;;;;20.10;99.90;;;;;;5097738;28;20014;-72
2022/10/02 16:36:17;;;;;;;;;;;20.00;99.90;;;;;;5087506;28;20046;-70
2022/10/02 16:39:14;;;;;;;;;;;19.80;99.90;;;;;;5075788;28;19916;-70
2022/10/02 16:41:56;;;;;;;;;;;19.80;99.90;;;;;;5099403;28;19943;-71
2022/10/02 16:44:51;;;;;;;;;;;19.80;99.90;;;;;;5100951;28;19966;-70
2022/10/02 16:47:34;;;;;;;;;;;19.70;99.90;;;;;;5098605;28;20061;-70
2022/10/02 16:50:17;;;;;;;;;;;19.60;99.90;;;;;;5081704;28;19912;-70
2022/10/02 16:52:46;;;;;;;;;;;19.60;99.90;;;;;;5091063;28;19939;-71
2022/10/02 16:55:12;;;;;;;;;;;19.60;99.90;;;;;;5089906;28;19908;-70
2022/10/02 16:57:37;;;;;;;;;;;19.60;99.90;;;;;;5103014;28;19935;-71
2022/10/02 17:00:06;;;;;;;;;;;19.50;99.90;;;;;;5102320;28;19981;-71
2022/10/02 17:02:50;;;;;;;;;;;19.40;99.90;;;;;;5103046;28;20023;-71
2022/10/02 17:05:35;;;;;;;;;;;19.50;99.90;;;;;;5099315;28;19912;-70
2022/10/02 17:08:28;;;;;;;;;;;19.40;99.90;;;;;;5105856;28;19911;-70
2022/10/02 17:14:08;;;;;;;;;;;19.30;99.90;;;;;;5092451;28;19927;-70
2022/10/02 17:17:09;;;;;;;;;;;19.20;99.90;;;;;;5095259;28;19994;-72
2022/10/02 17:19:54;;;;;;;;;;;19.10;99.90;;;;;;5068148;28;19913;-71
2022/10/02 17:26:00;;;;;;;;;;;19.10;99.90;;;;;;5032112;28;20139;-71
2022/10/02 17:29:02;;;;;;;;;;;19.10;99.90;;;;;;4993022;28;19996;-70
2022/10/02 17:37:55;;;;;;;;;;;18.80;99.90;;;;;;4969366;28;20427;-71
2022/10/02 17:46:48;;;;;;;;;;;18.60;99.90;;;;;;4900557;29;19919;-71
2022/10/02 17:58:46;;;;;;;;;;;18.40;99.90;;;;;;4908149;29;20027;-82
2022/10/02 18:20:02;;;;;;;;;;;18.10;99.90;;;;;;5040631;28;19959;-80
2022/10/02 18:26:14;;;;;;;;;;;;;;;;;;;;;
2022/10/02 18:32:26;;;;;;;;;;;;;;;;;;;;;
2022/10/02 18:41:41;;;;;;;;;;;;;;;;;;;;;
2022/10/02 18:50:34;;;;;;;;;;;17.70;99.90;;;;;;5109859;28;19918;-80
2022/10/02 18:53:29;;;;;;;;;;;;;;;;;;;;;
2022/10/02 18:56:48;;;;;;;;;;;;;;;;;;;;;
2022/10/02 19:05:17;;;;;;;;;;;17.70;99.90;;;;;;5057949;28;19917;-80
2022/10/02 19:08:08;;;;;;;;;;;17.80;99.90;;;;;;5109463;28;19912;-81
2022/10/02 19:11:04;;;;;;;;;;;17.70;99.90;;;;;;5114306;28;19912;-79
2022/10/02 19:35:42;;;;;;;;;;;17.50;99.90;;;;;;4963367;28;19930;-79
2022/10/02 19:44:13;;;;;;;;;;;17.60;99.90;;;;;;4961554;28;19920;-80
2022/10/02 20:27:25;;;;;;;;;;;17.20;99.90;;;;;;5002526;28;19964;-79
2022/10/02 20:33:19;;;;;;;;;;;17.20;99.90;;;;;;5019386;28;19994;-80
2022/10/02 20:46:18;;;;;;;;;;;17.20;99.90;;;;;;5001181;28;20004;-79
2022/10/02 20:51:47;;;;;;;;;;;17.00;99.90;;;;;;5047363;28;20000;-80
2022/10/02 21:00:21;;;;;;;;;;;16.70;99.90;;;;;;5097297;28;19965;-79
2022/10/02 21:09:18;;;;;;;;;;;16.70;99.90;;;;;;5104941;28;20443;-80
2022/10/02 21:18:16;;;;;;;;;;;16.70;99.90;;;;;;5079696;28;19908;-79
2022/10/02 21:33:06;;;;;;;;;;;16.80;99.90;;;;;;4944946;29;19930;-79
2022/10/02 21:35:53;;;;;;;;;;;17.00;99.90;;;;;;4975553;28;19918;-79
2022/10/02 21:45:01;;;;;;;;;;;17.10;99.90;;;;;;4974114;28;19924;-82
2022/10/02 21:51:12;;;;;;;;;;;17.20;99.90;;;;;;4935847;29;19915;-81
2022/10/02 22:06:14;;;;;;;;;;;17.30;99.90;;;;;;4976492;28;20159;-79
2022/10/02 22:18:56;;;;;;;;;;;17.10;99.90;;;;;;5013966;28;19956;-79
2022/10/02 22:28:30;;;;;;;;;;;16.90;99.90;;;;;;4943562;28;19922;-78
2022/10/02 22:40:12;;;;;;;;;;;16.60;99.90;;;;;;4979406;28;19962;-79
2022/10/02 22:55:32;;;;;;;;;;;;;;;;;;;;;
